Kouka Maru — JD2844 — position and weather

sailwx.info

Track history (hours):
 
Tides and Currents Weather Stations Pressure Air Temp Water Temp Dewpoint Dewpoint Depression Visibility Wind Speed Wind Dir Waves Ship Positions

Kouka Maru

Last reported at 2018-Apr-21 18:09 UTC. Time now 2018-Apr-21 18:45 UTC.
Position N 34°33' E 138°42'.

Length 68 m; draft 4.1 m.

MMSI: 431000836.

Date/timePositionNaut miles runAvg speedWind from/ knotsBaromVisibWave heightAir tempDewpointWater temp
2018-Apr-21 18:09N 34°33' E 138°42'1010.5
2018-Apr-21 17:11N 34°32' E 138°30'210.8
2018-Apr-21 16:57N 34°32' E 138°27'1810.8
2018-Apr-21 15:17N 34°30' E 138°05'2910.6
2018-Apr-21 12:30N 34°24' E 137°30'126 8.5
2018-Apr-20 21:42N 33°53' E 135°02'210.8
2018-Apr-20 21:30N 33°54' E 135°01'510.7
2018-Apr-20 21:00N 33°60' E 135°00'510.5
2018-Apr-20 20:30N 34°05' E 134°60'510.3
2018-Apr-20 20:00N 34°10' E 134°59'611.0
2018-Apr-20 19:30N 34°16' E 134°59'510.6
2018-Apr-20 19:00N 34°21' E 134°60'510.5
2018-Apr-20 18:30N 34°26' E 135°01'510.6
2018-Apr-20 18:00N 34°31' E 135°02'5 9.5
2018-Apr-20 17:31N 34°36' E 135°03'5 9.6
2018-Apr-20 17:00N 34°36' E 134°57'5 9.4
2018-Apr-20 16:31N 34°38' E 134°52'5 9.7
2018-Apr-20 16:00N 34°42' E 134°48'1 1.3
2018-Apr-20 15:05N 34°44' E 134°49'0 0.0
2018-Apr-20 15:00N 34°44' E 134°49'1 0.0
2018-Apr-19 21:25N 34°43' E 134°48'2 3.9
2018-Apr-19 21:00N 34°42' E 134°50'1 2.5
2018-Apr-19 20:31N 34°43' E 134°51'0 0.0
2018-Apr-19 20:00N 34°43' E 134°51'0 0.0
2018-Apr-19 19:31N 34°43' E 134°51'0 0.0
2018-Apr-19 19:01N 34°43' E 134°51'0 0.0
2018-Apr-19 18:30N 34°43' E 134°51'0 0.0
2018-Apr-19 18:01N 34°43' E 134°51'0 0.0
2018-Apr-19 17:31N 34°43' E 134°51'0 0.0
2018-Apr-19 17:01N 34°43' E 134°51'0 0.0
2018-Apr-19 16:31N 34°43' E 134°51'0 0.0
2018-Apr-19 16:01N 34°43' E 134°51'0 0.0
2018-Apr-19 15:31N 34°43' E 134°51'0 0.0
2018-Apr-19 15:01N 34°43' E 134°51'0 0.0
2018-Apr-19 14:31N 34°43' E 134°51'0 0.0
2018-Apr-19 14:00N 34°43' E 134°51'0 0.0
2018-Apr-19 13:30N 34°43' E 134°51'0 0.0
2018-Apr-19 13:00N 34°43' E 134°51'0 0.0
2018-Apr-19 12:30N 34°43' E 134°51'0 0.0
2018-Apr-19 12:00N 34°43' E 134°51'0 0.0
2018-Apr-19 11:30N 34°43' E 134°51'0 0.0
2018-Apr-19 10:57N 34°43' E 134°51'0 0.0
2018-Apr-19 10:30N 34°43' E 134°51'0 0.0
2018-Apr-19 09:58N 34°43' E 134°51'0 0.0
2018-Apr-19 09:30N 34°43' E 134°51'0 0.0
2018-Apr-19 08:59N 34°43' E 134°51'0 0.0
2018-Apr-19 08:29N 34°43' E 134°51'1 2.1
2018-Apr-19 07:59N 34°42' E 134°50'4 9.0
2018-Apr-19 07:31N 34°38' E 134°53'5 9.2
2018-Apr-19 07:01N 34°38' E 134°58'4 7.3
2018-Apr-19 06:30N 34°37' E 135°02'4 8.3
2018-Apr-19 06:00N 34°36' E 135°08'510.6
2018-Apr-19 05:30N 34°37' E 135°14'1 2.9
2018-Apr-19 05:01N 34°39' E 135°15'2 4.0
2018-Apr-19 04:31N 34°37' E 135°15'511.0
2018-Apr-19 04:01N 34°32' E 135°13'510.5
2018-Apr-19 03:30N 34°27' E 135°09'510.7
2018-Apr-19 03:00N 34°22' E 135°06'510.3
2018-Apr-19 02:30N 34°18' E 135°04'510.7
2018-Apr-19 02:00N 34°13' E 135°02'611.2
2018-Apr-19 01:30N 34°07' E 135°01'611.4
2018-Apr-19 01:00N 34°01' E 135°01'611.1
2018-Apr-19 00:29N 33°56' E 135°02'192 9.5
2018-Apr-18 04:24N 34°35' E 138°49'510.0
2018-Apr-18 03:56N 34°35' E 138°55'410.5
2018-Apr-18 03:30N 34°38' E 138°59'1311.4
2018-Apr-18 02:23N 34°48' E 139°09'1711.1
2018-Apr-18 00:50N 34°59' E 139°25'510.5
2018-Apr-18 00:21N 35°02' E 139°30'410.9
2018-Apr-17 23:59N 35°03' E 139°34'611.6
2018-Apr-17 23:30N 35°06' E 139°40'612.0
2018-Apr-17 23:00N 35°11' E 139°45'611.7
2018-Apr-17 22:30N 35°17' E 139°45'611.8
2018-Apr-17 22:00N 35°21' E 139°41'1 1.5
2018-Apr-17 21:30N 35°22' E 139°40'0 0.0
2018-Apr-17 21:00N 35°22' E 139°40'0 0.0
2018-Apr-17 20:30N 35°22' E 139°40'0 0.0
2018-Apr-17 20:00N 35°22' E 139°40'0 0.0
2018-Apr-17 19:30N 35°22' E 139°40'0 0.0
2018-Apr-17 19:01N 35°22' E 139°40'0 0.0
2018-Apr-17 18:31N 35°22' E 139°40'0 0.0
2018-Apr-17 18:00N 35°22' E 139°40'0 0.0
2018-Apr-17 17:30N 35°22' E 139°40'0 0.0
2018-Apr-17 17:00N 35°22' E 139°40'0 0.0
2018-Apr-17 16:30N 35°22' E 139°40'0 0.0
2018-Apr-17 16:00N 35°22' E 139°40'0 0.0
2018-Apr-17 15:30N 35°22' E 139°40'0 0.0
2018-Apr-17 15:00N 35°22' E 139°40'0 0.0
2018-Apr-17 14:30N 35°22' E 139°40'0 0.0
2018-Apr-17 14:00N 35°22' E 139°40'0 0.0
2018-Apr-17 13:30N 35°22' E 139°40'0 0.1
2018-Apr-17 13:00N 35°22' E 139°40'0 0.0
2018-Apr-17 12:30N 35°22' E 139°40'0 0.0
2018-Apr-17 12:00N 35°22' E 139°40'0 0.0
2018-Apr-17 11:30N 35°22' E 139°40'0 0.0
2018-Apr-17 10:59N 35°22' E 139°40'0 0.0
2018-Apr-17 10:30N 35°22' E 139°40'0 0.0
2018-Apr-17 10:00N 35°22' E 139°40'0 0.0
2018-Apr-17 09:30N 35°22' E 139°40'0 0.0
2018-Apr-17 09:00N 35°22' E 139°40'3 6.4
2018-Apr-17 08:30N 35°24' E 139°43'611.4
2018-Apr-17 08:00N 35°28' E 139°48'611.5
2018-Apr-17 07:29N 35°32' E 139°53'611.3
2018-Apr-17 06:58N 35°37' E 139°58'2 0.1
2018-Apr-16 17:14N 35°39' E 139°58'4 9.4
2018-Apr-16 16:47N 35°35' E 139°57'310.1
2018-Apr-16 16:30N 35°32' E 139°55'510.0
2018-Apr-16 16:00N 35°28' E 139°51'5 9.9
2018-Apr-16 15:30N 35°25' E 139°47'510.1
2018-Apr-16 15:00N 35°20' E 139°44'5 9.6
2018-Apr-16 14:30N 35°16' E 139°47'5 9.4
2018-Apr-16 14:00N 35°11' E 139°46'510.3
2018-Apr-16 13:30N 35°06' E 139°45'510.0
2018-Apr-16 13:00N 35°02' E 139°41'510.1
2018-Apr-16 12:29N 34°59' E 139°35'2910.8
2018-Apr-16 09:47N 34°42' E 139°07'3 9.5
2018-Apr-16 09:30N 34°40' E 139°04'5 9.4
2018-Apr-16 08:59N 34°37' E 138°60'23 9.6
2018-Apr-16 06:37N 34°34' E 138°32'210.0
2018-Apr-16 06:24N 34°34' E 138°30'810.3
2018-Apr-16 05:40N 34°33' E 138°20'169 8.7
2018-Apr-15 10:11N 33°53' E 135°02'2 9.2
2018-Apr-15 10:01N 33°54' E 135°02'5 9.6
2018-Apr-15 09:31N 33°59' E 135°02'5 9.5
2018-Apr-15 09:01N 34°04' E 135°02'5 9.7
2018-Apr-15 08:30N 34°09' E 135°02'510.1
2018-Apr-15 08:00N 34°14' E 135°03'4 8.8
2018-Apr-15 07:30N 34°18' E 135°04'510.1
2018-Apr-15 07:00N 34°23' E 135°06'510.9
2018-Apr-15 06:31N 34°27' E 135°10'510.7
2018-Apr-15 06:01N 34°32' E 135°13'510.4
2018-Apr-15 05:31N 34°37' E 135°15'5 9.2
2018-Apr-15 05:00N 34°41' E 135°14'0 0.2
2018-Apr-15 04:31N 34°41' E 135°14'0 0.0
2018-Apr-15 04:01N 34°41' E 135°14'0 0.0
2018-Apr-15 03:31N 34°41' E 135°14'0 0.0
2018-Apr-15 03:01N 34°41' E 135°14'0 0.0
2018-Apr-15 02:31N 34°41' E 135°14'0 0.1
2018-Apr-15 02:00N 34°41' E 135°14'0 0.0
2018-Apr-15 01:31N 34°41' E 135°14'0 0.0
2018-Apr-15 01:00N 34°41' E 135°14'0 0.0
2018-Apr-15 00:31N 34°41' E 135°14'0 0.0
2018-Apr-15 00:00N 34°41' E 135°14'0 0.0
2018-Apr-14 23:30N 34°41' E 135°14'0 0.1
2018-Apr-14 23:01N 34°41' E 135°14'0 0.0
2018-Apr-14 22:30N 34°41' E 135°14'0 0.0
2018-Apr-14 22:00N 34°41' E 135°14'0 0.1
2018-Apr-14 21:31N 34°41' E 135°14'0 0.0
2018-Apr-14 21:00N 34°41' E 135°14'0 0.0
2018-Apr-14 20:30N 34°41' E 135°14'0 0.0
2018-Apr-14 20:01N 34°41' E 135°14'0 0.0
2018-Apr-14 19:31N 34°41' E 135°14'0 0.0
2018-Apr-14 19:01N 34°41' E 135°14'0 0.0
2018-Apr-14 18:31N 34°41' E 135°14'0 0.0
2018-Apr-14 18:01N 34°41' E 135°14'0 0.0
2018-Apr-14 17:31N 34°41' E 135°14'0 0.0
2018-Apr-14 17:00N 34°41' E 135°14'0 0.0
2018-Apr-14 16:30N 34°41' E 135°14'0 0.1
2018-Apr-14 16:01N 34°41' E 135°14'0 0.0
2018-Apr-14 15:30N 34°41' E 135°14'0 0.1
2018-Apr-14 15:00N 34°41' E 135°14'0 0.1
2018-Apr-14 14:31N 34°41' E 135°14'0 0.0
2018-Apr-14 14:00N 34°41' E 135°14'0 0.0
2018-Apr-14 13:30N 34°41' E 135°14'0 0.0
2018-Apr-14 13:00N 34°41' E 135°14'0 0.0
2018-Apr-14 12:30N 34°41' E 135°14'0 0.0
2018-Apr-14 12:01N 34°41' E 135°14'0 0.0
2018-Apr-14 11:31N 34°41' E 135°14'0 0.0
2018-Apr-14 11:01N 34°41' E 135°14'0 0.0
2018-Apr-14 10:30N 34°41' E 135°14'0 0.1
2018-Apr-14 10:01N 34°41' E 135°14'0 0.0
2018-Apr-14 09:30N 34°41' E 135°14'0 0.0
2018-Apr-14 09:01N 34°41' E 135°14'0 0.0
2018-Apr-14 08:31N 34°41' E 135°14'0 0.1
2018-Apr-14 08:00N 34°41' E 135°14'0 0.0
2018-Apr-14 07:30N 34°41' E 135°14'0 0.0
2018-Apr-14 07:01N 34°41' E 135°14'0 0.0
2018-Apr-14 06:30N 34°41' E 135°14'0 0.0
2018-Apr-14 06:01N 34°41' E 135°14'0 0.0
2018-Apr-14 05:31N 34°41' E 135°14'0 0.0
2018-Apr-14 05:01N 34°41' E 135°14'0 0.0
2018-Apr-14 04:30N 34°41' E 135°14'0 0.0
2018-Apr-14 04:00N 34°41' E 135°14'0 0.0
2018-Apr-14 03:30N 34°41' E 135°14'0 0.1
2018-Apr-14 03:01N 34°41' E 135°14'0 0.0
2018-Apr-14 02:30N 34°41' E 135°14'0 0.0
2018-Apr-14 02:00N 34°41' E 135°14'0 0.0
2018-Apr-14 01:31N 34°41' E 135°14'0 0.0
2018-Apr-14 01:01N 34°41' E 135°14'1 2.2
2018-Apr-14 00:31N 34°42' E 135°15'0 0.0
2018-Apr-14 00:01N 34°42' E 135°15'0 0.0
2018-Apr-13 23:30N 34°42' E 135°15'0 0.0
2018-Apr-13 23:00N 34°42' E 135°15'0 0.0
2018-Apr-13 22:31N 34°42' E 135°15'0 0.0
2018-Apr-13 22:00N 34°42' E 135°15'0 0.1
2018-Apr-13 21:30N 34°42' E 135°15'0 0.1
2018-Apr-13 21:01N 34°42' E 135°15'0 0.0
2018-Apr-13 20:30N 34°42' E 135°15'0 0.0
2018-Apr-13 20:01N 34°42' E 135°15'0 0.0
2018-Apr-13 19:00N 34°42' E 135°15'0 0.0
2018-Apr-13 18:31N 34°42' E 135°15'0 0.0
2018-Apr-13 18:00N 34°42' E 135°15'0 0.0
2018-Apr-13 17:30N 34°42' E 135°15'0 0.1
2018-Apr-13 15:30N 34°42' E 135°15'0 0.0
2018-Apr-13 15:01N 34°42' E 135°15'0 0.0
2018-Apr-13 14:30N 34°42' E 135°15'0 0.0
2018-Apr-13 14:00N 34°42' E 135°15'0 0.0
2018-Apr-13 13:01N 34°42' E 135°15'0 0.0
2018-Apr-13 11:01N 34°42' E 135°15'0 0.0
2018-Apr-13 10:01N 34°42' E 135°15'0 0.0
2018-Apr-13 09:30N 34°42' E 135°15'0 0.7
2018-Apr-13 09:01N 34°42' E 135°15'1 2.3
2018-Apr-13 08:30N 34°41' E 135°14'0 0.0
2018-Apr-13 08:01N 34°41' E 135°14'0 0.0
2018-Apr-13 07:31N 34°41' E 135°14'0 0.0
2018-Apr-13 07:01N 34°41' E 135°14'0 0.0
2018-Apr-13 06:31N 34°41' E 135°14'0 0.0
2018-Apr-13 06:00N 34°41' E 135°14'0 0.0
2018-Apr-13 05:31N 34°41' E 135°14'0 0.0
2018-Apr-13 05:00N 34°41' E 135°14'0 0.0
2018-Apr-13 04:30N 34°41' E 135°14'0 0.0
2018-Apr-13 04:00N 34°41' E 135°14'0 0.0
2018-Apr-13 03:31N 34°41' E 135°14'1 1.1
2018-Apr-13 03:01N 34°41' E 135°14'1 2.4
2018-Apr-13 02:30N 34°42' E 135°13'0 0.0
2018-Apr-13 02:01N 34°42' E 135°13'0 0.0
2018-Apr-13 01:31N 34°42' E 135°13'0 0.0
2018-Apr-13 01:01N 34°42' E 135°13'0 0.0
2018-Apr-13 00:31N 34°42' E 135°13'0 0.0
2018-Apr-13 00:00N 34°42' E 135°13'0 0.0
2018-Apr-12 23:31N 34°42' E 135°13'0 0.0
2018-Apr-12 23:01N 34°42' E 135°13'0 0.0
2018-Apr-12 22:30N 34°42' E 135°13'0 0.0
2018-Apr-12 22:01N 34°42' E 135°13'0 0.0
2018-Apr-12 21:31N 34°42' E 135°13'0 0.0
2018-Apr-12 21:01N 34°42' E 135°13'0 0.0
2018-Apr-12 20:31N 34°42' E 135°13'0 0.0
2018-Apr-12 20:00N 34°42' E 135°13'0 0.0
2018-Apr-12 19:31N 34°42' E 135°13'0 0.0
2018-Apr-12 19:00N 34°42' E 135°13'0 0.0
2018-Apr-12 18:30N 34°42' E 135°13'0 0.0
2018-Apr-12 18:01N 34°42' E 135°13'0 0.0
2018-Apr-12 17:31N 34°42' E 135°13'0 0.0
2018-Apr-12 17:01N 34°42' E 135°13'0 0.0
2018-Apr-12 16:30N 34°42' E 135°13'0 0.0
2018-Apr-12 16:00N 34°42' E 135°13'0 0.0
2018-Apr-12 15:30N 34°42' E 135°13'0 0.0
2018-Apr-12 15:01N 34°42' E 135°13'0 0.0
2018-Apr-12 14:31N 34°42' E 135°13'0 0.0
2018-Apr-12 14:01N 34°42' E 135°13'0 0.0
2018-Apr-12 13:31N 34°42' E 135°13'0 0.0
2018-Apr-12 13:01N 34°42' E 135°13'0 0.0
2018-Apr-12 12:31N 34°42' E 135°13'0 0.0
2018-Apr-12 12:01N 34°42' E 135°13'0 0.0
2018-Apr-12 11:30N 34°42' E 135°13'0 0.0
2018-Apr-12 11:01N 34°42' E 135°13'0 0.0
2018-Apr-12 10:31N 34°42' E 135°13'0 0.0
2018-Apr-12 10:00N 34°42' E 135°13'0 0.0
2018-Apr-12 09:31N 34°42' E 135°13'0 0.0
2018-Apr-12 09:01N 34°42' E 135°13'0 0.0
2018-Apr-12 08:30N 34°42' E 135°13'0 0.0
2018-Apr-12 08:01N 34°42' E 135°13'0 0.0
2018-Apr-12 07:30N 34°42' E 135°13'0 0.0
2018-Apr-12 07:01N 34°42' E 135°13'0 0.0
2018-Apr-12 06:31N 34°42' E 135°13'4 7.5
2018-Apr-12 06:01N 34°39' E 135°16'5 9.6
2018-Apr-12 05:30N 34°34' E 135°15'511.1
2018-Apr-12 05:00N 34°29' E 135°11'510.7
2018-Apr-12 04:30N 34°25' E 135°08'510.5
2018-Apr-12 04:00N 34°20' E 135°05'5 9.7
2018-Apr-12 03:30N 34°16' E 135°03'510.4
2018-Apr-12 03:00N 34°10' E 135°03'510.6
2018-Apr-12 02:30N 34°05' E 135°03'610.4
2018-Apr-12 01:58N 33°59' E 135°03'4 9.6
2018-Apr-12 01:30N 33°55' E 135°03'  
Track history (hours):
 
Tides and Currents Weather Stations Pressure Air Temp Water Temp Dewpoint Dewpoint Depression Visibility Wind Speed Wind Dir Waves Ship Positions

Kouka Maru

Last reported at 2018-Apr-21 18:09 UTC. Time now 2018-Apr-21 18:45 UTC.
Position N 34°33' E 138°42'.

Length 68 m; draft 4.1 m.

MMSI: 431000836.

Date/timePositionNaut miles runAvg speedWind from/ knotsBaromVisibWave heightAir tempDewpointWater temp
2018-Apr-21 18:09N 34°33' E 138°42'1010.5
2018-Apr-21 17:11N 34°32' E 138°30'210.8
2018-Apr-21 16:57N 34°32' E 138°27'1810.8
2018-Apr-21 15:17N 34°30' E 138°05'2910.6
2018-Apr-21 12:30N 34°24' E 137°30'126 8.5
2018-Apr-20 21:42N 33°53' E 135°02'210.8
2018-Apr-20 21:30N 33°54' E 135°01'510.7
2018-Apr-20 21:00N 33°60' E 135°00'510.5
2018-Apr-20 20:30N 34°05' E 134°60'510.3
2018-Apr-20 20:00N 34°10' E 134°59'611.0
2018-Apr-20 19:30N 34°16' E 134°59'510.6
2018-Apr-20 19:00N 34°21' E 134°60'510.5
2018-Apr-20 18:30N 34°26' E 135°01'510.6
2018-Apr-20 18:00N 34°31' E 135°02'5 9.5
2018-Apr-20 17:31N 34°36' E 135°03'5 9.6
2018-Apr-20 17:00N 34°36' E 134°57'5 9.4
2018-Apr-20 16:31N 34°38' E 134°52'5 9.7
2018-Apr-20 16:00N 34°42' E 134°48'1 1.3
2018-Apr-20 15:05N 34°44' E 134°49'0 0.0
2018-Apr-20 15:00N 34°44' E 134°49'1 0.0
2018-Apr-19 21:25N 34°43' E 134°48'2 3.9
2018-Apr-19 21:00N 34°42' E 134°50'1 2.5
2018-Apr-19 20:31N 34°43' E 134°51'0 0.0
2018-Apr-19 20:00N 34°43' E 134°51'0 0.0
2018-Apr-19 19:31N 34°43' E 134°51'0 0.0
2018-Apr-19 19:01N 34°43' E 134°51'0 0.0
2018-Apr-19 18:30N 34°43' E 134°51'0 0.0
2018-Apr-19 18:01N 34°43' E 134°51'0 0.0
2018-Apr-19 17:31N 34°43' E 134°51'0 0.0
2018-Apr-19 17:01N 34°43' E 134°51'0 0.0
2018-Apr-19 16:31N 34°43' E 134°51'0 0.0
2018-Apr-19 16:01N 34°43' E 134°51'0 0.0
2018-Apr-19 15:31N 34°43' E 134°51'0 0.0
2018-Apr-19 15:01N 34°43' E 134°51'0 0.0
2018-Apr-19 14:31N 34°43' E 134°51'0 0.0
2018-Apr-19 14:00N 34°43' E 134°51'0 0.0
2018-Apr-19 13:30N 34°43' E 134°51'0 0.0
2018-Apr-19 13:00N 34°43' E 134°51'0 0.0
2018-Apr-19 12:30N 34°43' E 134°51'0 0.0
2018-Apr-19 12:00N 34°43' E 134°51'0 0.0
2018-Apr-19 11:30N 34°43' E 134°51'0 0.0
2018-Apr-19 10:57N 34°43' E 134°51'0 0.0
2018-Apr-19 10:30N 34°43' E 134°51'0 0.0
2018-Apr-19 09:58N 34°43' E 134°51'0 0.0
2018-Apr-19 09:30N 34°43' E 134°51'0 0.0
2018-Apr-19 08:59N 34°43' E 134°51'0 0.0
2018-Apr-19 08:29N 34°43' E 134°51'1 2.1
2018-Apr-19 07:59N 34°42' E 134°50'4 9.0
2018-Apr-19 07:31N 34°38' E 134°53'5 9.2
2018-Apr-19 07:01N 34°38' E 134°58'4 7.3
2018-Apr-19 06:30N 34°37' E 135°02'4 8.3
2018-Apr-19 06:00N 34°36' E 135°08'510.6
2018-Apr-19 05:30N 34°37' E 135°14'1 2.9
2018-Apr-19 05:01N 34°39' E 135°15'2 4.0
2018-Apr-19 04:31N 34°37' E 135°15'511.0
2018-Apr-19 04:01N 34°32' E 135°13'510.5
2018-Apr-19 03:30N 34°27' E 135°09'510.7
2018-Apr-19 03:00N 34°22' E 135°06'510.3
2018-Apr-19 02:30N 34°18' E 135°04'510.7
2018-Apr-19 02:00N 34°13' E 135°02'611.2
2018-Apr-19 01:30N 34°07' E 135°01'611.4
2018-Apr-19 01:00N 34°01' E 135°01'611.1
2018-Apr-19 00:29N 33°56' E 135°02'192 9.5
2018-Apr-18 04:24N 34°35' E 138°49'510.0
2018-Apr-18 03:56N 34°35' E 138°55'410.5
2018-Apr-18 03:30N 34°38' E 138°59'1311.4
2018-Apr-18 02:23N 34°48' E 139°09'1711.1
2018-Apr-18 00:50N 34°59' E 139°25'510.5
2018-Apr-18 00:21N 35°02' E 139°30'410.9
2018-Apr-17 23:59N 35°03' E 139°34'611.6
2018-Apr-17 23:30N 35°06' E 139°40'612.0
2018-Apr-17 23:00N 35°11' E 139°45'611.7
2018-Apr-17 22:30N 35°17' E 139°45'611.8
2018-Apr-17 22:00N 35°21' E 139°41'1 1.5
2018-Apr-17 21:30N 35°22' E 139°40'0 0.0
2018-Apr-17 21:00N 35°22' E 139°40'0 0.0
2018-Apr-17 20:30N 35°22' E 139°40'0 0.0
2018-Apr-17 20:00N 35°22' E 139°40'0 0.0
2018-Apr-17 19:30N 35°22' E 139°40'0 0.0
2018-Apr-17 19:01N 35°22' E 139°40'0 0.0
2018-Apr-17 18:31N 35°22' E 139°40'0 0.0
2018-Apr-17 18:00N 35°22' E 139°40'0 0.0
2018-Apr-17 17:30N 35°22' E 139°40'0 0.0
2018-Apr-17 17:00N 35°22' E 139°40'0 0.0
2018-Apr-17 16:30N 35°22' E 139°40'0 0.0
2018-Apr-17 16:00N 35°22' E 139°40'0 0.0
2018-Apr-17 15:30N 35°22' E 139°40'0 0.0
2018-Apr-17 15:00N 35°22' E 139°40'0 0.0
2018-Apr-17 14:30N 35°22' E 139°40'0 0.0
2018-Apr-17 14:00N 35°22' E 139°40'0 0.0
2018-Apr-17 13:30N 35°22' E 139°40'0 0.1
2018-Apr-17 13:00N 35°22' E 139°40'0 0.0
2018-Apr-17 12:30N 35°22' E 139°40'0 0.0
2018-Apr-17 12:00N 35°22' E 139°40'0 0.0
2018-Apr-17 11:30N 35°22' E 139°40'0 0.0
2018-Apr-17 10:59N 35°22' E 139°40'0 0.0
2018-Apr-17 10:30N 35°22' E 139°40'0 0.0
2018-Apr-17 10:00N 35°22' E 139°40'0 0.0
2018-Apr-17 09:30N 35°22' E 139°40'0 0.0
2018-Apr-17 09:00N 35°22' E 139°40'3 6.4
2018-Apr-17 08:30N 35°24' E 139°43'611.4
2018-Apr-17 08:00N 35°28' E 139°48'611.5
2018-Apr-17 07:29N 35°32' E 139°53'611.3
2018-Apr-17 06:58N 35°37' E 139°58'2 0.1
2018-Apr-16 17:14N 35°39' E 139°58'4 9.4
2018-Apr-16 16:47N 35°35' E 139°57'310.1
2018-Apr-16 16:30N 35°32' E 139°55'510.0
2018-Apr-16 16:00N 35°28' E 139°51'5 9.9
2018-Apr-16 15:30N 35°25' E 139°47'510.1
2018-Apr-16 15:00N 35°20' E 139°44'5 9.6
2018-Apr-16 14:30N 35°16' E 139°47'5 9.4
2018-Apr-16 14:00N 35°11' E 139°46'510.3
2018-Apr-16 13:30N 35°06' E 139°45'510.0
2018-Apr-16 13:00N 35°02' E 139°41'510.1
2018-Apr-16 12:29N 34°59' E 139°35'2910.8
2018-Apr-16 09:47N 34°42' E 139°07'3 9.5
2018-Apr-16 09:30N 34°40' E 139°04'5 9.4
2018-Apr-16 08:59N 34°37' E 138°60'23 9.6
2018-Apr-16 06:37N 34°34' E 138°32'210.0
2018-Apr-16 06:24N 34°34' E 138°30'810.3
2018-Apr-16 05:40N 34°33' E 138°20'169 8.7
2018-Apr-15 10:11N 33°53' E 135°02'2 9.2
2018-Apr-15 10:01N 33°54' E 135°02'5 9.6
2018-Apr-15 09:31N 33°59' E 135°02'5 9.5
2018-Apr-15 09:01N 34°04' E 135°02'5 9.7
2018-Apr-15 08:30N 34°09' E 135°02'510.1
2018-Apr-15 08:00N 34°14' E 135°03'4 8.8
2018-Apr-15 07:30N 34°18' E 135°04'510.1
2018-Apr-15 07:00N 34°23' E 135°06'510.9
2018-Apr-15 06:31N 34°27' E 135°10'510.7
2018-Apr-15 06:01N 34°32' E 135°13'510.4
2018-Apr-15 05:31N 34°37' E 135°15'5 9.2
2018-Apr-15 05:00N 34°41' E 135°14'0 0.2
2018-Apr-15 04:31N 34°41' E 135°14'0 0.0
2018-Apr-15 04:01N 34°41' E 135°14'0 0.0
2018-Apr-15 03:31N 34°41' E 135°14'0 0.0
2018-Apr-15 03:01N 34°41' E 135°14'0 0.0
2018-Apr-15 02:31N 34°41' E 135°14'0 0.1
2018-Apr-15 02:00N 34°41' E 135°14'0 0.0
2018-Apr-15 01:31N 34°41' E 135°14'0 0.0
2018-Apr-15 01:00N 34°41' E 135°14'0 0.0
2018-Apr-15 00:31N 34°41' E 135°14'0 0.0
2018-Apr-15 00:00N 34°41' E 135°14'0 0.0
2018-Apr-14 23:30N 34°41' E 135°14'0 0.1
2018-Apr-14 23:01N 34°41' E 135°14'0 0.0
2018-Apr-14 22:30N 34°41' E 135°14'0 0.0
2018-Apr-14 22:00N 34°41' E 135°14'0 0.1
2018-Apr-14 21:31N 34°41' E 135°14'0 0.0
2018-Apr-14 21:00N 34°41' E 135°14'0 0.0
2018-Apr-14 20:30N 34°41' E 135°14'0 0.0
2018-Apr-14 20:01N 34°41' E 135°14'0 0.0
2018-Apr-14 19:31N 34°41' E 135°14'0 0.0
2018-Apr-14 19:01N 34°41' E 135°14'0 0.0
2018-Apr-14 18:31N 34°41' E 135°14'0 0.0
2018-Apr-14 18:01N 34°41' E 135°14'0 0.0
2018-Apr-14 17:31N 34°41' E 135°14'0 0.0
2018-Apr-14 17:00N 34°41' E 135°14'0 0.0
2018-Apr-14 16:30N 34°41' E 135°14'0 0.1
2018-Apr-14 16:01N 34°41' E 135°14'0 0.0
2018-Apr-14 15:30N 34°41' E 135°14'0 0.1
2018-Apr-14 15:00N 34°41' E 135°14'0 0.1
2018-Apr-14 14:31N 34°41' E 135°14'0 0.0
2018-Apr-14 14:00N 34°41' E 135°14'0 0.0
2018-Apr-14 13:30N 34°41' E 135°14'0 0.0
2018-Apr-14 13:00N 34°41' E 135°14'0 0.0
2018-Apr-14 12:30N 34°41' E 135°14'0 0.0
2018-Apr-14 12:01N 34°41' E 135°14'0 0.0
2018-Apr-14 11:31N 34°41' E 135°14'0 0.0
2018-Apr-14 11:01N 34°41' E 135°14'0 0.0
2018-Apr-14 10:30N 34°41' E 135°14'0 0.1
2018-Apr-14 10:01N 34°41' E 135°14'0 0.0
2018-Apr-14 09:30N 34°41' E 135°14'0 0.0
2018-Apr-14 09:01N 34°41' E 135°14'0 0.0
2018-Apr-14 08:31N 34°41' E 135°14'0 0.1
2018-Apr-14 08:00N 34°41' E 135°14'0 0.0
2018-Apr-14 07:30N 34°41' E 135°14'0 0.0
2018-Apr-14 07:01N 34°41' E 135°14'0 0.0
2018-Apr-14 06:30N 34°41' E 135°14'0 0.0
2018-Apr-14 06:01N 34°41' E 135°14'0 0.0
2018-Apr-14 05:31N 34°41' E 135°14'0 0.0
2018-Apr-14 05:01N 34°41' E 135°14'0 0.0
2018-Apr-14 04:30N 34°41' E 135°14'0 0.0
2018-Apr-14 04:00N 34°41' E 135°14'0 0.0
2018-Apr-14 03:30N 34°41' E 135°14'0 0.1
2018-Apr-14 03:01N 34°41' E 135°14'0 0.0
2018-Apr-14 02:30N 34°41' E 135°14'0 0.0
2018-Apr-14 02:00N 34°41' E 135°14'0 0.0
2018-Apr-14 01:31N 34°41' E 135°14'0 0.0
2018-Apr-14 01:01N 34°41' E 135°14'1 2.2
2018-Apr-14 00:31N 34°42' E 135°15'0 0.0
2018-Apr-14 00:01N 34°42' E 135°15'0 0.0
2018-Apr-13 23:30N 34°42' E 135°15'0 0.0
2018-Apr-13 23:00N 34°42' E 135°15'0 0.0
2018-Apr-13 22:31N 34°42' E 135°15'0 0.0
2018-Apr-13 22:00N 34°42' E 135°15'0 0.1
2018-Apr-13 21:30N 34°42' E 135°15'0 0.1
2018-Apr-13 21:01N 34°42' E 135°15'0 0.0
2018-Apr-13 20:30N 34°42' E 135°15'0 0.0
2018-Apr-13 20:01N 34°42' E 135°15'0 0.0
2018-Apr-13 19:00N 34°42' E 135°15'0 0.0
2018-Apr-13 18:31N 34°42' E 135°15'0 0.0
2018-Apr-13 18:00N 34°42' E 135°15'0 0.0
2018-Apr-13 17:30N 34°42' E 135°15'0 0.1
2018-Apr-13 15:30N 34°42' E 135°15'0 0.0
2018-Apr-13 15:01N 34°42' E 135°15'0 0.0
2018-Apr-13 14:30N 34°42' E 135°15'0 0.0
2018-Apr-13 14:00N 34°42' E 135°15'0 0.0
2018-Apr-13 13:01N 34°42' E 135°15'0 0.0
2018-Apr-13 11:01N 34°42' E 135°15'0 0.0
2018-Apr-13 10:01N 34°42' E 135°15'0 0.0
2018-Apr-13 09:30N 34°42' E 135°15'0 0.7
2018-Apr-13 09:01N 34°42' E 135°15'1 2.3
2018-Apr-13 08:30N 34°41' E 135°14'0 0.0
2018-Apr-13 08:01N 34°41' E 135°14'0 0.0
2018-Apr-13 07:31N 34°41' E 135°14'0 0.0
2018-Apr-13 07:01N 34°41' E 135°14'0 0.0
2018-Apr-13 06:31N 34°41' E 135°14'0 0.0
2018-Apr-13 06:00N 34°41' E 135°14'0 0.0
2018-Apr-13 05:31N 34°41' E 135°14'0 0.0
2018-Apr-13 05:00N 34°41' E 135°14'0 0.0
2018-Apr-13 04:30N 34°41' E 135°14'0 0.0
2018-Apr-13 04:00N 34°41' E 135°14'0 0.0
2018-Apr-13 03:31N 34°41' E 135°14'1 1.1
2018-Apr-13 03:01N 34°41' E 135°14'1 2.4
2018-Apr-13 02:30N 34°42' E 135°13'0 0.0
2018-Apr-13 02:01N 34°42' E 135°13'0 0.0
2018-Apr-13 01:31N 34°42' E 135°13'0 0.0
2018-Apr-13 01:01N 34°42' E 135°13'0 0.0
2018-Apr-13 00:31N 34°42' E 135°13'0 0.0
2018-Apr-13 00:00N 34°42' E 135°13'0 0.0
2018-Apr-12 23:31N 34°42' E 135°13'0 0.0
2018-Apr-12 23:01N 34°42' E 135°13'0 0.0
2018-Apr-12 22:30N 34°42' E 135°13'0 0.0
2018-Apr-12 22:01N 34°42' E 135°13'0 0.0
2018-Apr-12 21:31N 34°42' E 135°13'0 0.0
2018-Apr-12 21:01N 34°42' E 135°13'0 0.0
2018-Apr-12 20:31N 34°42' E 135°13'0 0.0
2018-Apr-12 20:00N 34°42' E 135°13'0 0.0
2018-Apr-12 19:31N 34°42' E 135°13'0 0.0
2018-Apr-12 19:00N 34°42' E 135°13'0 0.0
2018-Apr-12 18:30N 34°42' E 135°13'0 0.0
2018-Apr-12 18:01N 34°42' E 135°13'0 0.0
2018-Apr-12 17:31N 34°42' E 135°13'0 0.0
2018-Apr-12 17:01N 34°42' E 135°13'0 0.0
2018-Apr-12 16:30N 34°42' E 135°13'0 0.0
2018-Apr-12 16:00N 34°42' E 135°13'0 0.0
2018-Apr-12 15:30N 34°42' E 135°13'0 0.0
2018-Apr-12 15:01N 34°42' E 135°13'0 0.0
2018-Apr-12 14:31N 34°42' E 135°13'0 0.0
2018-Apr-12 14:01N 34°42' E 135°13'0 0.0
2018-Apr-12 13:31N 34°42' E 135°13'0 0.0
2018-Apr-12 13:01N 34°42' E 135°13'0 0.0
2018-Apr-12 12:31N 34°42' E 135°13'0 0.0
2018-Apr-12 12:01N 34°42' E 135°13'0 0.0
2018-Apr-12 11:30N 34°42' E 135°13'0 0.0
2018-Apr-12 11:01N 34°42' E 135°13'0 0.0
2018-Apr-12 10:31N 34°42' E 135°13'0 0.0
2018-Apr-12 10:00N 34°42' E 135°13'0 0.0
2018-Apr-12 09:31N 34°42' E 135°13'0 0.0
2018-Apr-12 09:01N 34°42' E 135°13'0 0.0
2018-Apr-12 08:30N 34°42' E 135°13'0 0.0
2018-Apr-12 08:01N 34°42' E 135°13'0 0.0
2018-Apr-12 07:30N 34°42' E 135°13'0 0.0
2018-Apr-12 07:01N 34°42' E 135°13'0 0.0
2018-Apr-12 06:31N 34°42' E 135°13'4 7.5
2018-Apr-12 06:01N 34°39' E 135°16'5 9.6
2018-Apr-12 05:30N 34°34' E 135°15'511.1
2018-Apr-12 05:00N 34°29' E 135°11'510.7
2018-Apr-12 04:30N 34°25' E 135°08'510.5
2018-Apr-12 04:00N 34°20' E 135°05'5 9.7
2018-Apr-12 03:30N 34°16' E 135°03'510.4
2018-Apr-12 03:00N 34°10' E 135°03'510.6
2018-Apr-12 02:30N 34°05' E 135°03'610.4
2018-Apr-12 01:58N 33°59' E 135°03'4 9.6
2018-Apr-12 01:30N 33°55' E 135°03'  

Dump ship's entire track history